Matlock, Iowa
Current Conditions -  °F | °C
As of 2:15 AM on Monday 24 Nov 2014 (Local Time) from KSHL Reporting Station
Overcast Overcast  
Wind Chill:   Ceiling: 1900
Heat Index: 25°   Visibility: 10mi
Dew Point: 18°   Wind: 24mph
Humidity: 74%   Direction: 320°NW
Pressure: 29.47"   Gusts: 33mph
Location:  43.24°N, 95.94°W
Report Text: KSHL 240815Z AUTO 32021G29KT 10SM OVC019 M04/M08 A2947 RMK AO2
Loading
Personal Weather Stations






























Interactive Weather Map New forecast layout! Learn more

10-Day Weather Forecast

Advertisements
Track Severe Weather on mobile